KTTN/TTN METAR and TAF weather

Enter ICAO airport designator
Station Type Date Time Source
KTTN METAR 2021/09/27 07:53 UTC NOAA

KTTN 270753Z AUTO 00000KT 10SM CLR 14/09 A3000 RMK AO2 SLP150 T01390089


Station Type Date Time Source
KTTN Decoded METAR 2021/09/27 07:53 UTC NOAA

TRENTON MERCER COUNTY AIRPORT , NJ, United States (KTTN) 40-17N 074-49W 59M
Sep 27, 2021 - 03:53 AM EDT / 2021.09.27 0753 UTC
Wind: Calm:0
Visibility: 10 mile(s):0
Sky conditions: clear
Temperature: 57.0 F (13.9 C)
Dew Point: 48.0 F (8.9 C)
Relative Humidity: 71%
Pressure (altimeter): 30 in. Hg (1015 hPa)
ob: KTTN 270753Z AUTO 00000KT 10SM CLR 14/09 A3000 RMK AO2 SLP150 T01390089
cycle: 8

Station Type Date Time Source
KTTN TAF 2021/09/27 06:40 UTC NOAA

TAF KTTN 270538Z 2706/2806 25004KT P6SM FEW080
FM271300 25006KT P6SM BKN090
FM271600 24010G18KT P6SM SCT050
FM272100 22010KT P6SM FEW250
FM280300 22005KT P6SM FEW200 WS020/23035KT

Example: see airport list